sensor_id;sensor_type;location;lat;lon;timestamp;P1;durP1;ratioP1;P2;durP2;ratioP2
77872;SDS011;67068;52.116;4.440;2023-06-10T00:00:40;12.55;;;8.20;;
77872;SDS011;67068;52.116;4.440;2023-06-10T00:03:06;12.98;;;8.30;;
77872;SDS011;67068;52.116;4.440;2023-06-10T00:05:32;12.70;;;8.48;;
77872;SDS011;67068;52.116;4.440;2023-06-10T00:07:57;13.73;;;8.50;;
77872;SDS011;67068;52.116;4.440;2023-06-10T00:10:23;13.27;;;8.50;;
77872;SDS011;67068;52.116;4.440;2023-06-10T00:12:49;12.43;;;8.18;;
77872;SDS011;67068;52.116;4.440;2023-06-10T00:15:14;11.82;;;7.65;;
77872;SDS011;67068;52.116;4.440;2023-06-10T00:17:39;12.90;;;8.13;;
77872;SDS011;67068;52.116;4.440;2023-06-10T00:20:07;12.63;;;7.57;;
77872;SDS011;67068;52.116;4.440;2023-06-10T00:22:34;12.88;;;8.40;;
77872;SDS011;67068;52.116;4.440;2023-06-10T00:24:59;11.93;;;8.33;;
77872;SDS011;67068;52.116;4.440;2023-06-10T00:27:24;13.50;;;8.90;;
77872;SDS011;67068;52.116;4.440;2023-06-10T00:29:51;14.23;;;8.48;;
77872;SDS011;67068;52.116;4.440;2023-06-10T00:32:16;12.93;;;8.47;;
77872;SDS011;67068;52.116;4.440;2023-06-10T00:34:42;13.33;;;8.60;;
77872;SDS011;67068;52.116;4.440;2023-06-10T00:37:07;13.07;;;7.83;;
77872;SDS011;67068;52.116;4.440;2023-06-10T00:39:32;13.87;;;9.10;;
77872;SDS011;67068;52.116;4.440;2023-06-10T00:41:57;13.13;;;8.60;;
77872;SDS011;67068;52.116;4.440;2023-06-10T00:44:22;13.37;;;8.63;;
77872;SDS011;67068;52.116;4.440;2023-06-10T00:46:48;12.53;;;7.27;;
77872;SDS011;67068;52.116;4.440;2023-06-10T00:49:16;14.27;;;8.65;;
77872;SDS011;67068;52.116;4.440;2023-06-10T00:51:41;13.07;;;8.15;;
77872;SDS011;67068;52.116;4.440;2023-06-10T00:54:07;13.40;;;8.55;;
77872;SDS011;67068;52.116;4.440;2023-06-10T00:56:32;12.43;;;7.22;;
77872;SDS011;67068;52.116;4.440;2023-06-10T00:58:59;12.50;;;7.07;;
77872;SDS011;67068;52.116;4.440;2023-06-10T01:01:24;13.02;;;7.32;;
77872;SDS011;67068;52.116;4.440;2023-06-10T01:03:50;14.18;;;7.53;;
77872;SDS011;67068;52.116;4.440;2023-06-10T01:06:20;11.40;;;7.70;;
77872;SDS011;67068;52.116;4.440;2023-06-10T01:09:02;13.82;;;7.50;;
77872;SDS011;67068;52.116;4.440;2023-06-10T01:11:36;12.55;;;8.13;;
77872;SDS011;67068;52.116;4.440;2023-06-10T01:14:03;13.38;;;8.65;;
77872;SDS011;67068;52.116;4.440;2023-06-10T01:16:30;13.48;;;8.70;;
77872;SDS011;67068;52.116;4.440;2023-06-10T01:18:55;15.53;;;7.60;;
77872;SDS011;67068;52.116;4.440;2023-06-10T01:21:21;13.47;;;9.20;;
77872;SDS011;67068;52.116;4.440;2023-06-10T01:23:49;12.18;;;7.35;;
77872;SDS011;67068;52.116;4.440;2023-06-10T01:26:14;12.10;;;7.47;;
77872;SDS011;67068;52.116;4.440;2023-06-10T01:28:42;13.23;;;8.52;;
77872;SDS011;67068;52.116;4.440;2023-06-10T01:31:16;13.00;;;7.90;;
77872;SDS011;67068;52.116;4.440;2023-06-10T01:33:43;13.63;;;8.57;;
77872;SDS011;67068;52.116;4.440;2023-06-10T01:36:10;12.63;;;7.45;;
77872;SDS011;67068;52.116;4.440;2023-06-10T01:38:39;12.30;;;7.82;;
77872;SDS011;67068;52.116;4.440;2023-06-10T01:43:32;13.35;;;6.95;;
77872;SDS011;67068;52.116;4.440;2023-06-10T01:45:58;12.82;;;7.35;;
77872;SDS011;67068;52.116;4.440;2023-06-10T01:48:23;12.37;;;8.10;;
77872;SDS011;67068;52.116;4.440;2023-06-10T01:50:48;13.47;;;7.17;;
77872;SDS011;67068;52.116;4.440;2023-06-10T01:53:13;14.37;;;8.60;;
77872;SDS011;67068;52.116;4.440;2023-06-10T01:55:39;12.40;;;7.97;;
77872;SDS011;67068;52.116;4.440;2023-06-10T01:58:04;12.07;;;7.17;;
77872;SDS011;67068;52.116;4.440;2023-06-10T02:00:29;11.60;;;7.60;;
77872;SDS011;67068;52.116;4.440;2023-06-10T02:02:54;12.63;;;7.60;;
77872;SDS011;67068;52.116;4.440;2023-06-10T02:05:20;12.35;;;7.03;;
77872;SDS011;67068;52.116;4.440;2023-06-10T02:07:45;13.60;;;7.33;;
77872;SDS011;67068;52.116;4.440;2023-06-10T02:10:10;13.40;;;7.33;;
77872;SDS011;67068;52.116;4.440;2023-06-10T02:12:35;12.23;;;7.40;;
77872;SDS011;67068;52.116;4.440;2023-06-10T02:15:01;13.17;;;6.40;;
77872;SDS011;67068;52.116;4.440;2023-06-10T02:17:26;12.90;;;7.67;;
77872;SDS011;67068;52.116;4.440;2023-06-10T02:19:51;12.73;;;7.07;;
77872;SDS011;67068;52.116;4.440;2023-06-10T02:22:20;11.02;;;7.03;;
77872;SDS011;67068;52.116;4.440;2023-06-10T02:24:45;11.10;;;6.97;;
77872;SDS011;67068;52.116;4.440;2023-06-10T02:27:11;12.87;;;7.40;;
77872;SDS011;67068;52.116;4.440;2023-06-10T02:29:36;14.50;;;6.83;;
77872;SDS011;67068;52.116;4.440;2023-06-10T02:32:01;13.30;;;7.23;;
77872;SDS011;67068;52.116;4.440;2023-06-10T02:34:27;12.07;;;6.95;;
77872;SDS011;67068;52.116;4.440;2023-06-10T02:36:52;12.03;;;7.07;;
77872;SDS011;67068;52.116;4.440;2023-06-10T02:39:17;12.90;;;7.10;;
77872;SDS011;67068;52.116;4.440;2023-06-10T02:41:43;12.50;;;7.37;;
77872;SDS011;67068;52.116;4.440;2023-06-10T02:44:08;11.57;;;7.00;;
77872;SDS011;67068;52.116;4.440;2023-06-10T02:46:33;13.00;;;7.53;;
77872;SDS011;67068;52.116;4.440;2023-06-10T02:48:58;11.67;;;6.63;;
77872;SDS011;67068;52.116;4.440;2023-06-10T02:51:24;11.87;;;6.90;;
77872;SDS011;67068;52.116;4.440;2023-06-10T02:53:49;12.90;;;7.32;;
77872;SDS011;67068;52.116;4.440;2023-06-10T02:56:16;11.35;;;6.43;;
77872;SDS011;67068;52.116;4.440;2023-06-10T02:58:41;12.82;;;7.50;;
77872;SDS011;67068;52.116;4.440;2023-06-10T03:01:06;12.33;;;7.00;;
77872;SDS011;67068;52.116;4.440;2023-06-10T03:03:32;11.50;;;6.83;;
77872;SDS011;67068;52.116;4.440;2023-06-10T03:05:58;11.68;;;6.30;;
77872;SDS011;67068;52.116;4.440;2023-06-10T03:08:23;12.38;;;6.85;;
77872;SDS011;67068;52.116;4.440;2023-06-10T03:10:50;11.23;;;6.72;;
77872;SDS011;67068;52.116;4.440;2023-06-10T03:13:15;12.10;;;7.00;;
77872;SDS011;67068;52.116;4.440;2023-06-10T03:15:40;12.03;;;6.07;;
77872;SDS011;67068;52.116;4.440;2023-06-10T03:18:06;12.65;;;6.88;;
77872;SDS011;67068;52.116;4.440;2023-06-10T03:20:31;10.50;;;6.50;;
77872;SDS011;67068;52.116;4.440;2023-06-10T03:22:56;11.43;;;6.60;;
77872;SDS011;67068;52.116;4.440;2023-06-10T03:25:22;10.47;;;6.13;;
77872;SDS011;67068;52.116;4.440;2023-06-10T03:27:47;11.33;;;5.67;;
77872;SDS011;67068;52.116;4.440;2023-06-10T03:30:12;11.10;;;6.40;;
77872;SDS011;67068;52.116;4.440;2023-06-10T03:32:38;10.73;;;6.35;;
77872;SDS011;67068;52.116;4.440;2023-06-10T03:35:03;11.00;;;6.73;;
77872;SDS011;67068;52.116;4.440;2023-06-10T03:37:29;11.45;;;6.18;;
77872;SDS011;67068;52.116;4.440;2023-06-10T03:39:54;11.00;;;6.40;;
77872;SDS011;67068;52.116;4.440;2023-06-10T03:42:19;11.03;;;6.20;;
77872;SDS011;67068;52.116;4.440;2023-06-10T03:44:44;11.70;;;6.27;;
77872;SDS011;67068;52.116;4.440;2023-06-10T03:47:10;10.73;;;6.30;;
77872;SDS011;67068;52.116;4.440;2023-06-10T03:49:35;11.13;;;6.00;;
77872;SDS011;67068;52.116;4.440;2023-06-10T03:52:01;11.15;;;6.20;;
77872;SDS011;67068;52.116;4.440;2023-06-10T03:54:26;11.65;;;6.45;;
77872;SDS011;67068;52.116;4.440;2023-06-10T03:56:51;11.73;;;6.03;;
77872;SDS011;67068;52.116;4.440;2023-06-10T03:59:17;10.40;;;6.20;;
77872;SDS011;67068;52.116;4.440;2023-06-10T04:01:42;10.83;;;5.47;;
77872;SDS011;67068;52.116;4.440;2023-06-10T04:04:08;11.45;;;6.20;;
77872;SDS011;67068;52.116;4.440;2023-06-10T04:06:33;11.90;;;6.10;;
77872;SDS011;67068;52.116;4.440;2023-06-10T04:08:59;11.03;;;5.27;;
77872;SDS011;67068;52.116;4.440;2023-06-10T04:11:24;11.43;;;5.43;;
77872;SDS011;67068;52.116;4.440;2023-06-10T04:13:49;10.95;;;6.03;;
77872;SDS011;67068;52.116;4.440;2023-06-10T04:16:15;12.67;;;5.83;;
77872;SDS011;67068;52.116;4.440;2023-06-10T04:18:41;10.70;;;6.03;;
77872;SDS011;67068;52.116;4.440;2023-06-10T04:21:06;10.45;;;5.95;;
77872;SDS011;67068;52.116;4.440;2023-06-10T04:23:32;10.35;;;5.97;;
77872;SDS011;67068;52.116;4.440;2023-06-10T04:25:57;11.37;;;5.90;;
77872;SDS011;67068;52.116;4.440;2023-06-10T04:28:24;10.50;;;5.32;;
77872;SDS011;67068;52.116;4.440;2023-06-10T04:30:49;10.73;;;5.40;;
77872;SDS011;67068;52.116;4.440;2023-06-10T04:33:14;10.30;;;5.50;;
77872;SDS011;67068;52.116;4.440;2023-06-10T04:35:40;10.53;;;5.87;;
77872;SDS011;67068;52.116;4.440;2023-06-10T04:38:05;10.97;;;5.77;;
77872;SDS011;67068;52.116;4.440;2023-06-10T04:40:30;11.23;;;5.70;;
77872;SDS011;67068;52.116;4.440;2023-06-10T04:42:55;11.40;;;5.53;;
77872;SDS011;67068;52.116;4.440;2023-06-10T04:45:21;10.97;;;5.80;;
77872;SDS011;67068;52.116;4.440;2023-06-10T04:47:46;10.30;;;5.40;;
77872;SDS011;67068;52.116;4.440;2023-06-10T04:50:11;10.73;;;5.20;;
77872;SDS011;67068;52.116;4.440;2023-06-10T04:52:37;10.88;;;5.47;;
77872;SDS011;67068;52.116;4.440;2023-06-10T04:55:02;9.87;;;5.23;;
77872;SDS011;67068;52.116;4.440;2023-06-10T04:57:27;10.70;;;5.10;;
77872;SDS011;67068;52.116;4.440;2023-06-10T04:59:53;9.90;;;5.10;;
77872;SDS011;67068;52.116;4.440;2023-06-10T05:02:18;10.88;;;5.55;;
77872;SDS011;67068;52.116;4.440;2023-06-10T05:04:43;10.15;;;5.65;;
77872;SDS011;67068;52.116;4.440;2023-06-10T05:07:08;10.63;;;5.00;;
77872;SDS011;67068;52.116;4.440;2023-06-10T05:09:34;9.53;;;5.03;;
77872;SDS011;67068;52.116;4.440;2023-06-10T05:11:59;11.10;;;5.20;;
77872;SDS011;67068;52.116;4.440;2023-06-10T05:14:25;9.80;;;5.10;;
77872;SDS011;67068;52.116;4.440;2023-06-10T05:16:50;10.57;;;5.07;;
77872;SDS011;67068;52.116;4.440;2023-06-10T05:19:15;12.52;;;5.65;;
77872;SDS011;67068;52.116;4.440;2023-06-10T05:21:44;11.40;;;5.55;;
77872;SDS011;67068;52.116;4.440;2023-06-10T05:24:09;9.52;;;4.60;;
77872;SDS011;67068;52.116;4.440;2023-06-10T05:26:35;9.50;;;4.40;;
77872;SDS011;67068;52.116;4.440;2023-06-10T05:29:02;9.73;;;4.78;;
77872;SDS011;67068;52.116;4.440;2023-06-10T05:31:27;10.32;;;5.00;;
77872;SDS011;67068;52.116;4.440;2023-06-10T05:33:52;9.07;;;4.40;;
77872;SDS011;67068;52.116;4.440;2023-06-10T05:36:18;10.33;;;5.00;;
77872;SDS011;67068;52.116;4.440;2023-06-10T05:38:43;9.80;;;5.13;;
77872;SDS011;67068;52.116;4.440;2023-06-10T05:41:08;10.07;;;4.83;;
77872;SDS011;67068;52.116;4.440;2023-06-10T05:43:33;10.27;;;5.17;;
77872;SDS011;67068;52.116;4.440;2023-06-10T05:45:58;10.90;;;4.93;;
77872;SDS011;67068;52.116;4.440;2023-06-10T05:48:24;10.03;;;4.67;;
77872;SDS011;67068;52.116;4.440;2023-06-10T05:50:49;10.63;;;5.27;;
77872;SDS011;67068;52.116;4.440;2023-06-10T05:53:14;9.47;;;4.47;;
77872;SDS011;67068;52.116;4.440;2023-06-10T05:55:41;9.48;;;4.80;;
77872;SDS011;67068;52.116;4.440;2023-06-10T05:58:06;9.10;;;4.78;;
77872;SDS011;67068;52.116;4.440;2023-06-10T06:00:32;10.60;;;5.50;;
77872;SDS011;67068;52.116;4.440;2023-06-10T06:02:57;9.53;;;4.70;;
77872;SDS011;67068;52.116;4.440;2023-06-10T06:05:23;10.38;;;5.00;;
77872;SDS011;67068;52.116;4.440;2023-06-10T06:07:49;9.43;;;4.20;;
77872;SDS011;67068;52.116;4.440;2023-06-10T06:10:14;9.57;;;4.50;;
77872;SDS011;67068;52.116;4.440;2023-06-10T06:12:39;11.40;;;4.47;;
77872;SDS011;67068;52.116;4.440;2023-06-10T06:15:04;9.57;;;4.37;;
77872;SDS011;67068;52.116;4.440;2023-06-10T06:17:30;9.65;;;4.70;;
77872;SDS011;67068;52.116;4.440;2023-06-10T06:19:55;9.93;;;4.30;;
77872;SDS011;67068;52.116;4.440;2023-06-10T06:22:20;9.87;;;5.20;;
77872;SDS011;67068;52.116;4.440;2023-06-10T06:24:47;11.18;;;4.85;;
77872;SDS011;67068;52.116;4.440;2023-06-10T06:27:12;9.77;;;4.97;;
77872;SDS011;67068;52.116;4.440;2023-06-10T06:29:37;9.37;;;4.97;;
77872;SDS011;67068;52.116;4.440;2023-06-10T06:32:02;10.33;;;4.67;;
77872;SDS011;67068;52.116;4.440;2023-06-10T06:34:28;9.75;;;4.88;;
77872;SDS011;67068;52.116;4.440;2023-06-10T06:36:53;8.50;;;4.30;;
77872;SDS011;67068;52.116;4.440;2023-06-10T06:39:18;9.70;;;4.37;;
77872;SDS011;67068;52.116;4.440;2023-06-10T06:41:43;9.53;;;4.37;;
77872;SDS011;67068;52.116;4.440;2023-06-10T06:44:09;9.93;;;4.80;;
77872;SDS011;67068;52.116;4.440;2023-06-10T06:46:34;9.13;;;4.63;;
77872;SDS011;67068;52.116;4.440;2023-06-10T06:48:59;9.67;;;4.97;;
77872;SDS011;67068;52.116;4.440;2023-06-10T06:51:24;9.10;;;4.43;;
77872;SDS011;67068;52.116;4.440;2023-06-10T06:53:49;10.43;;;4.60;;
77872;SDS011;67068;52.116;4.440;2023-06-10T06:56:16;9.70;;;4.53;;
77872;SDS011;67068;52.116;4.440;2023-06-10T06:58:41;9.30;;;4.40;;
77872;SDS011;67068;52.116;4.440;2023-06-10T07:01:06;10.17;;;4.80;;
77872;SDS011;67068;52.116;4.440;2023-06-10T07:03:31;8.87;;;3.90;;
77872;SDS011;67068;52.116;4.440;2023-06-10T07:05:57;9.30;;;4.40;;
77872;SDS011;67068;52.116;4.440;2023-06-10T07:08:22;9.13;;;4.10;;
77872;SDS011;67068;52.116;4.440;2023-06-10T07:10:47;9.17;;;4.70;;
77872;SDS011;67068;52.116;4.440;2023-06-10T07:13:14;9.63;;;4.43;;
77872;SDS011;67068;52.116;4.440;2023-06-10T07:15:39;10.23;;;4.77;;
77872;SDS011;67068;52.116;4.440;2023-06-10T07:18:04;9.27;;;4.57;;
77872;SDS011;67068;52.116;4.440;2023-06-10T07:20:29;9.25;;;4.38;;
77872;SDS011;67068;52.116;4.440;2023-06-10T07:22:55;8.90;;;4.33;;
77872;SDS011;67068;52.116;4.440;2023-06-10T07:25:20;9.77;;;4.37;;
77872;SDS011;67068;52.116;4.440;2023-06-10T07:27:45;9.47;;;3.40;;
77872;SDS011;67068;52.116;4.440;2023-06-10T07:30:11;9.13;;;4.70;;
77872;SDS011;67068;52.116;4.440;2023-06-10T07:32:36;10.18;;;3.95;;
77872;SDS011;67068;52.116;4.440;2023-06-10T07:35:02;8.80;;;3.43;;
77872;SDS011;67068;52.116;4.440;2023-06-10T07:37:28;11.60;;;4.32;;
77872;SDS011;67068;52.116;4.440;2023-06-10T07:39:53;11.50;;;4.23;;
77872;SDS011;67068;52.116;4.440;2023-06-10T07:42:19;9.50;;;4.50;;
77872;SDS011;67068;52.116;4.440;2023-06-10T07:44:44;8.80;;;4.00;;
77872;SDS011;67068;52.116;4.440;2023-06-10T07:47:09;10.80;;;4.47;;
77872;SDS011;67068;52.116;4.440;2023-06-10T07:49:34;8.97;;;3.73;;
77872;SDS011;67068;52.116;4.440;2023-06-10T07:52:00;8.27;;;4.10;;
77872;SDS011;67068;52.116;4.440;2023-06-10T07:54:25;10.30;;;4.57;;
77872;SDS011;67068;52.116;4.440;2023-06-10T07:56:50;9.97;;;4.23;;
77872;SDS011;67068;52.116;4.440;2023-06-10T07:59:17;9.63;;;4.32;;
77872;SDS011;67068;52.116;4.440;2023-06-10T08:01:43;10.50;;;4.30;;
77872;SDS011;67068;52.116;4.440;2023-06-10T08:04:08;9.63;;;4.20;;
77872;SDS011;67068;52.116;4.440;2023-06-10T08:06:33;11.57;;;4.50;;
77872;SDS011;67068;52.116;4.440;2023-06-10T08:08:58;9.27;;;4.00;;
77872;SDS011;67068;52.116;4.440;2023-06-10T08:11:24;11.32;;;4.13;;
77872;SDS011;67068;52.116;4.440;2023-06-10T08:13:53;10.85;;;4.10;;
77872;SDS011;67068;52.116;4.440;2023-06-10T08:16:18;10.43;;;4.53;;
77872;SDS011;67068;52.116;4.440;2023-06-10T08:18:43;10.10;;;4.53;;
77872;SDS011;67068;52.116;4.440;2023-06-10T08:21:08;9.10;;;4.70;;
77872;SDS011;67068;52.116;4.440;2023-06-10T08:23:34;11.90;;;4.30;;
77872;SDS011;67068;52.116;4.440;2023-06-10T08:25:59;10.05;;;4.53;;
77872;SDS011;67068;52.116;4.440;2023-06-10T08:28:24;9.93;;;4.20;;
77872;SDS011;67068;52.116;4.440;2023-06-10T08:30:49;11.67;;;5.23;;
77872;SDS011;67068;52.116;4.440;2023-06-10T08:33:15;10.20;;;4.37;;
77872;SDS011;67068;52.116;4.440;2023-06-10T08:35:40;10.60;;;4.32;;
77872;SDS011;67068;52.116;4.440;2023-06-10T08:38:05;9.93;;;3.77;;
77872;SDS011;67068;52.116;4.440;2023-06-10T08:40:30;9.80;;;4.13;;
77872;SDS011;67068;52.116;4.440;2023-06-10T08:45:24;10.35;;;4.55;;
77872;SDS011;67068;52.116;4.440;2023-06-10T08:47:53;10.13;;;4.97;;
77872;SDS011;67068;52.116;4.440;2023-06-10T08:55:21;11.40;;;4.53;;
77872;SDS011;67068;52.116;4.440;2023-06-10T08:57:51;9.98;;;4.63;;
77872;SDS011;67068;52.116;4.440;2023-06-10T09:00:16;12.63;;;5.00;;
77872;SDS011;67068;52.116;4.440;2023-06-10T09:02:41;9.77;;;4.50;;
77872;SDS011;67068;52.116;4.440;2023-06-10T09:05:08;10.65;;;4.43;;
77872;SDS011;67068;52.116;4.440;2023-06-10T09:07:33;10.63;;;4.35;;
77872;SDS011;67068;52.116;4.440;2023-06-10T09:10:01;9.63;;;4.35;;
77872;SDS011;67068;52.116;4.440;2023-06-10T09:12:29;11.23;;;4.70;;
77872;SDS011;67068;52.116;4.440;2023-06-10T09:14:54;8.95;;;4.60;;
77872;SDS011;67068;52.116;4.440;2023-06-10T09:17:19;10.85;;;4.47;;
77872;SDS011;67068;52.116;4.440;2023-06-10T09:19:45;11.47;;;5.17;;
77872;SDS011;67068;52.116;4.440;2023-06-10T09:22:10;11.35;;;4.68;;
77872;SDS011;67068;52.116;4.440;2023-06-10T09:24:36;9.52;;;4.15;;
77872;SDS011;67068;52.116;4.440;2023-06-10T09:27:02;10.98;;;4.88;;
77872;SDS011;67068;52.116;4.440;2023-06-10T09:29:27;11.95;;;5.30;;
77872;SDS011;67068;52.116;4.440;2023-06-10T09:31:52;9.57;;;4.43;;
77872;SDS011;67068;52.116;4.440;2023-06-10T09:34:18;10.30;;;4.77;;
77872;SDS011;67068;52.116;4.440;2023-06-10T09:36:43;10.13;;;4.53;;
77872;SDS011;67068;52.116;4.440;2023-06-10T09:39:16;11.20;;;4.28;;
77872;SDS011;67068;52.116;4.440;2023-06-10T09:41:41;12.10;;;5.10;;
77872;SDS011;67068;52.116;4.440;2023-06-10T09:44:16;11.10;;;4.87;;
77872;SDS011;67068;52.116;4.440;2023-06-10T09:46:42;10.77;;;4.68;;
77872;SDS011;67068;52.116;4.440;2023-06-10T09:49:07;13.13;;;4.88;;
77872;SDS011;67068;52.116;4.440;2023-06-10T09:51:32;11.07;;;4.87;;
77872;SDS011;67068;52.116;4.440;2023-06-10T09:53:58;10.67;;;4.67;;
77872;SDS011;67068;52.116;4.440;2023-06-10T09:56:32;10.35;;;4.85;;
77872;SDS011;67068;52.116;4.440;2023-06-10T09:58:58;11.38;;;5.53;;
77872;SDS011;67068;52.116;4.440;2023-06-10T10:01:23;11.10;;;5.10;;
77872;SDS011;67068;52.116;4.440;2023-06-10T10:03:49;10.70;;;5.28;;
77872;SDS011;67068;52.116;4.440;2023-06-10T10:06:16;9.88;;;4.80;;
77872;SDS011;67068;52.116;4.440;2023-06-10T10:08:41;10.85;;;5.05;;
77872;SDS011;67068;52.116;4.440;2023-06-10T10:11:06;11.93;;;4.90;;
77872;SDS011;67068;52.116;4.440;2023-06-10T10:13:33;10.83;;;5.20;;
77872;SDS011;67068;52.116;4.440;2023-06-10T10:15:59;10.95;;;4.97;;
77872;SDS011;67068;52.116;4.440;2023-06-10T10:18:26;10.73;;;5.20;;
77872;SDS011;67068;52.116;4.440;2023-06-10T10:20:55;10.57;;;5.40;;
77872;SDS011;67068;52.116;4.440;2023-06-10T10:23:21;11.48;;;5.18;;
77872;SDS011;67068;52.116;4.440;2023-06-10T10:25:51;11.13;;;5.18;;
77872;SDS011;67068;52.116;4.440;2023-06-10T10:28:16;12.65;;;5.53;;
77872;SDS011;67068;52.116;4.440;2023-06-10T10:30:46;10.60;;;5.38;;
77872;SDS011;67068;52.116;4.440;2023-06-10T10:36:12;11.90;;;5.90;;
77872;SDS011;67068;52.116;4.440;2023-06-10T10:38:38;10.88;;;5.40;;
77872;SDS011;67068;52.116;4.440;2023-06-10T10:41:04;12.25;;;5.55;;
77872;SDS011;67068;52.116;4.440;2023-06-10T10:43:29;11.52;;;5.70;;
77872;SDS011;67068;52.116;4.440;2023-06-10T10:46:01;10.38;;;5.05;;
77872;SDS011;67068;52.116;4.440;2023-06-10T10:48:35;10.55;;;5.82;;
77872;SDS011;67068;52.116;4.440;2023-06-10T10:51:02;11.02;;;5.40;;
77872;SDS011;67068;52.116;4.440;2023-06-10T10:53:27;12.65;;;5.13;;
77872;SDS011;67068;52.116;4.440;2023-06-10T10:56:01;11.77;;;5.27;;
77872;SDS011;67068;52.116;4.440;2023-06-10T10:58:29;11.45;;;5.72;;
77872;SDS011;67068;52.116;4.440;2023-06-10T11:00:54;11.20;;;5.40;;
77872;SDS011;67068;52.116;4.440;2023-06-10T11:03:20;11.47;;;5.80;;
77872;SDS011;67068;52.116;4.440;2023-06-10T11:05:46;11.05;;;5.35;;
77872;SDS011;67068;52.116;4.440;2023-06-10T11:08:15;11.60;;;5.45;;
77872;SDS011;67068;52.116;4.440;2023-06-10T11:10:41;11.68;;;5.03;;
77872;SDS011;67068;52.116;4.440;2023-06-10T11:13:07;11.57;;;5.15;;
77872;SDS011;67068;52.116;4.440;2023-06-10T11:15:33;10.50;;;5.50;;
77872;SDS011;67068;52.116;4.440;2023-06-10T11:23:10;10.77;;;5.22;;
77872;SDS011;67068;52.116;4.440;2023-06-10T11:25:39;11.07;;;5.93;;
77872;SDS011;67068;52.116;4.440;2023-06-10T11:28:17;11.95;;;5.43;;
77872;SDS011;67068;52.116;4.440;2023-06-10T11:30:42;11.43;;;5.60;;
77872;SDS011;67068;52.116;4.440;2023-06-10T11:33:07;11.67;;;5.50;;
77872;SDS011;67068;52.116;4.440;2023-06-10T11:35:33;11.55;;;5.80;;
77872;SDS011;67068;52.116;4.440;2023-06-10T11:37:58;11.30;;;5.72;;
77872;SDS011;67068;52.116;4.440;2023-06-10T11:40:23;11.05;;;5.50;;
77872;SDS011;67068;52.116;4.440;2023-06-10T11:42:48;10.07;;;4.77;;
77872;SDS011;67068;52.116;4.440;2023-06-10T11:45:15;10.20;;;5.20;;
77872;SDS011;67068;52.116;4.440;2023-06-10T11:47:41;9.98;;;5.38;;
77872;SDS011;67068;52.116;4.440;2023-06-10T11:50:27;11.02;;;5.03;;
77872;SDS011;67068;52.116;4.440;2023-06-10T11:52:52;11.68;;;5.65;;
77872;SDS011;67068;52.116;4.440;2023-06-10T11:55:20;10.75;;;5.57;;
77872;SDS011;67068;52.116;4.440;2023-06-10T11:57:46;12.17;;;5.67;;
77872;SDS011;67068;52.116;4.440;2023-06-10T12:00:11;11.10;;;5.20;;
77872;SDS011;67068;52.116;4.440;2023-06-10T12:02:36;10.38;;;5.30;;
77872;SDS011;67068;52.116;4.440;2023-06-10T12:05:12;220.27;;;101.13;;
77872;SDS011;67068;52.116;4.440;2023-06-10T12:07:37;297.15;;;141.10;;
77872;SDS011;67068;52.116;4.440;2023-06-10T12:10:02;244.53;;;124.77;;
77872;SDS011;67068;52.116;4.440;2023-06-10T12:12:27;177.30;;;93.80;;
77872;SDS011;67068;52.116;4.440;2023-06-10T12:14:54;133.10;;;68.20;;
77872;SDS011;67068;52.116;4.440;2023-06-10T12:22:21;52.05;;;26.58;;
77872;SDS011;67068;52.116;4.440;2023-06-10T12:25:04;30.35;;;17.48;;
77872;SDS011;67068;52.116;4.440;2023-06-10T12:27:31;29.60;;;15.15;;
77872;SDS011;67068;52.116;4.440;2023-06-10T12:29:57;23.45;;;12.27;;
77872;SDS011;67068;52.116;4.440;2023-06-10T12:32:43;18.73;;;9.43;;
77872;SDS011;67068;52.116;4.440;2023-06-10T12:35:09;18.70;;;9.80;;
77872;SDS011;67068;52.116;4.440;2023-06-10T12:37:35;18.95;;;8.88;;
77872;SDS011;67068;52.116;4.440;2023-06-10T12:40:02;17.77;;;8.77;;
77872;SDS011;67068;52.116;4.440;2023-06-10T12:42:28;16.10;;;8.25;;
77872;SDS011;67068;52.116;4.440;2023-06-10T12:44:54;14.48;;;6.80;;
77872;SDS011;67068;52.116;4.440;2023-06-10T12:47:28;15.48;;;7.07;;
77872;SDS011;67068;52.116;4.440;2023-06-10T12:49:53;12.93;;;6.40;;
77872;SDS011;67068;52.116;4.440;2023-06-10T12:52:19;14.23;;;6.80;;
77872;SDS011;67068;52.116;4.440;2023-06-10T12:54:44;11.73;;;6.20;;
77872;SDS011;67068;52.116;4.440;2023-06-10T12:57:09;12.13;;;6.43;;
77872;SDS011;67068;52.116;4.440;2023-06-10T12:59:35;11.75;;;6.32;;
77872;SDS011;67068;52.116;4.440;2023-06-10T13:02:00;10.50;;;5.15;;
77872;SDS011;67068;52.116;4.440;2023-06-10T13:04:26;11.50;;;5.80;;
77872;SDS011;67068;52.116;4.440;2023-06-10T13:06:51;11.18;;;5.35;;
77872;SDS011;67068;52.116;4.440;2023-06-10T13:09:17;11.37;;;5.27;;
77872;SDS011;67068;52.116;4.440;2023-06-10T13:11:42;11.93;;;5.17;;
77872;SDS011;67068;52.116;4.440;2023-06-10T13:14:08;11.93;;;4.82;;
77872;SDS011;67068;52.116;4.440;2023-06-10T13:16:33;9.52;;;4.93;;
77872;SDS011;67068;52.116;4.440;2023-06-10T13:18:59;10.10;;;4.53;;
77872;SDS011;67068;52.116;4.440;2023-06-10T13:21:25;9.88;;;5.05;;
77872;SDS011;67068;52.116;4.440;2023-06-10T13:23:51;10.35;;;5.38;;
77872;SDS011;67068;52.116;4.440;2023-06-10T13:26:16;10.37;;;5.20;;
77872;SDS011;67068;52.116;4.440;2023-06-10T13:28:42;10.75;;;5.05;;
77872;SDS011;67068;52.116;4.440;2023-06-10T13:31:07;10.93;;;4.50;;
77872;SDS011;67068;52.116;4.440;2023-06-10T13:33:32;9.80;;;4.63;;
77872;SDS011;67068;52.116;4.440;2023-06-10T13:35:58;10.63;;;4.47;;
77872;SDS011;67068;52.116;4.440;2023-06-10T13:38:23;12.67;;;5.60;;
77872;SDS011;67068;52.116;4.440;2023-06-10T13:40:48;10.67;;;5.30;;
77872;SDS011;67068;52.116;4.440;2023-06-10T13:43:13;11.17;;;5.57;;
77872;SDS011;67068;52.116;4.440;2023-06-10T13:45:39;10.73;;;5.43;;
77872;SDS011;67068;52.116;4.440;2023-06-10T13:48:04;11.15;;;5.00;;
77872;SDS011;67068;52.116;4.440;2023-06-10T13:50:30;12.05;;;5.63;;
77872;SDS011;67068;52.116;4.440;2023-06-10T13:52:56;11.80;;;5.47;;
77872;SDS011;67068;52.116;4.440;2023-06-10T13:55:21;10.68;;;5.32;;
77872;SDS011;67068;52.116;4.440;2023-06-10T13:57:46;10.03;;;4.70;;
77872;SDS011;67068;52.116;4.440;2023-06-10T14:00:12;11.43;;;5.00;;
77872;SDS011;67068;52.116;4.440;2023-06-10T14:02:37;10.65;;;4.80;;
77872;SDS011;67068;52.116;4.440;2023-06-10T14:05:03;10.40;;;5.03;;
77872;SDS011;67068;52.116;4.440;2023-06-10T14:07:30;11.02;;;5.13;;
77872;SDS011;67068;52.116;4.440;2023-06-10T14:09:55;10.13;;;4.37;;
77872;SDS011;67068;52.116;4.440;2023-06-10T14:12:21;9.98;;;5.28;;
77872;SDS011;67068;52.116;4.440;2023-06-10T14:14:47;10.38;;;5.03;;
77872;SDS011;67068;52.116;4.440;2023-06-10T14:17:12;10.15;;;4.93;;
77872;SDS011;67068;52.116;4.440;2023-06-10T14:19:37;11.10;;;5.10;;
77872;SDS011;67068;52.116;4.440;2023-06-10T14:22:02;10.77;;;4.80;;
77872;SDS011;67068;52.116;4.440;2023-06-10T14:24:28;10.70;;;5.22;;
77872;SDS011;67068;52.116;4.440;2023-06-10T14:26:53;9.43;;;4.60;;
77872;SDS011;67068;52.116;4.440;2023-06-10T14:29:18;13.03;;;4.70;;
77872;SDS011;67068;52.116;4.440;2023-06-10T14:31:44;10.85;;;4.95;;
77872;SDS011;67068;52.116;4.440;2023-06-10T14:34:09;9.63;;;4.20;;
77872;SDS011;67068;52.116;4.440;2023-06-10T14:36:34;10.10;;;5.13;;
77872;SDS011;67068;52.116;4.440;2023-06-10T14:39:00;9.83;;;4.63;;
77872;SDS011;67068;52.116;4.440;2023-06-10T14:41:25;8.68;;;4.22;;
77872;SDS011;67068;52.116;4.440;2023-06-10T14:43:51;9.55;;;4.75;;
77872;SDS011;67068;52.116;4.440;2023-06-10T14:46:16;9.35;;;4.65;;
77872;SDS011;67068;52.116;4.440;2023-06-10T14:48:41;9.00;;;4.60;;
77872;SDS011;67068;52.116;4.440;2023-06-10T14:51:06;11.10;;;5.17;;